createdAt,value
2023-01-06T00:00:31.497Z,180
2023-01-06T00:01:02.862Z,180
2023-01-06T00:01:35.106Z,180
2023-01-06T00:02:07.031Z,180
2023-01-06T00:02:34.723Z,180
2023-01-06T00:02:55.873Z,180
2023-01-06T00:03:26.892Z,180
2023-01-06T00:03:58.886Z,180
2023-01-06T00:04:30.960Z,180
2023-01-06T00:05:03.440Z,180
2023-01-06T00:05:34.922Z,180
2023-01-06T00:06:07.823Z,180
2023-01-06T00:06:34.687Z,180
2023-01-06T00:06:54.878Z,180
2023-01-06T00:07:26.847Z,180
2023-01-06T00:07:58.872Z,180
2023-01-06T00:08:30.873Z,180
2023-01-06T00:09:03.067Z,180
2023-01-06T00:09:34.907Z,180
2023-01-06T00:10:07.252Z,180
2023-01-06T00:10:34.949Z,180
2023-01-06T00:10:55.141Z,180
2023-01-06T00:11:26.849Z,180
2023-01-06T00:11:58.888Z,180
2023-01-06T00:12:32.190Z,180
2023-01-06T00:13:02.907Z,180
2023-01-06T00:13:35.460Z,180
2023-01-06T00:14:07.015Z,180
2023-01-06T00:14:34.759Z,180
2023-01-06T00:14:54.839Z,180
2023-01-06T00:15:27.451Z,180
2023-01-06T00:15:58.965Z,180
2023-01-06T00:16:30.869Z,180
2023-01-06T00:17:02.868Z,180
2023-01-06T00:17:34.866Z,180
2023-01-06T00:18:07.015Z,180
2023-01-06T00:18:34.745Z,180
2023-01-06T00:18:55.914Z,180
2023-01-06T00:19:26.905Z,180
2023-01-06T00:19:58.865Z,180
2023-01-06T00:20:31.271Z,180
2023-01-06T00:21:02.846Z,180
2023-01-06T00:21:34.887Z,180
2023-01-06T00:22:07.659Z,180
2023-01-06T00:22:34.637Z,180
2023-01-06T00:22:54.852Z,180
2023-01-06T00:23:26.848Z,180
2023-01-06T00:23:58.867Z,180
2023-01-06T00:24:30.892Z,180
2023-01-06T00:25:03.460Z,180
2023-01-06T00:25:34.865Z,180
2023-01-06T00:26:07.058Z,180
2023-01-06T00:26:34.660Z,180
2023-01-06T00:26:54.933Z,180
2023-01-06T00:27:26.877Z,180
2023-01-06T00:27:58.880Z,180
2023-01-06T00:28:31.562Z,180
2023-01-06T00:29:02.894Z,180
2023-01-06T00:29:34.917Z,180
2023-01-06T00:30:08.124Z,180
2023-01-06T00:30:35.039Z,180
2023-01-06T00:30:55.161Z,180
2023-01-06T00:31:26.955Z,180
2023-01-06T00:31:58.848Z,180
2023-01-06T00:32:30.899Z,180
2023-01-06T00:33:02.947Z,180
2023-01-06T00:33:35.131Z,180
2023-01-06T00:34:07.081Z,180
2023-01-06T00:34:34.654Z,180
2023-01-06T00:34:54.916Z,180
2023-01-06T00:35:27.194Z,180
2023-01-06T00:35:58.873Z,180
2023-01-06T00:36:31.606Z,180
2023-01-06T00:37:02.850Z,180
2023-01-06T00:37:34.881Z,180
2023-01-06T00:38:07.068Z,180
2023-01-06T00:38:34.651Z,180
2023-01-06T00:38:54.895Z,180
2023-01-06T00:39:26.888Z,180
2023-01-06T00:39:58.851Z,180
2023-01-06T00:40:31.664Z,180
2023-01-06T00:41:02.829Z,180
2023-01-06T00:41:34.868Z,180
2023-01-06T00:42:07.082Z,180
2023-01-06T00:42:34.642Z,180
2023-01-06T00:42:55.566Z,180
2023-01-06T00:43:26.869Z,180
2023-01-06T00:43:58.900Z,180
2023-01-06T00:44:30.905Z,180
2023-01-06T00:45:03.831Z,180
2023-01-06T00:45:34.903Z,180
2023-01-06T00:46:08.195Z,180
2023-01-06T00:46:34.710Z,180
2023-01-06T00:46:54.871Z,180
2023-01-06T00:47:26.849Z,180
2023-01-06T00:47:58.872Z,180
2023-01-06T00:48:30.865Z,180
2023-01-06T00:49:05.586Z,180
2023-01-06T00:49:35.082Z,180
2023-01-06T00:50:07.363Z,180
2023-01-06T00:50:34.652Z,180
2023-01-06T00:50:55.147Z,180
2023-01-06T00:51:26.918Z,180
2023-01-06T00:51:58.858Z,180
2023-01-06T00:52:31.719Z,180
2023-01-06T00:53:02.876Z,180
2023-01-06T00:53:34.894Z,180
2023-01-06T00:54:07.150Z,180
2023-01-06T00:54:34.759Z,180
2023-01-06T00:54:54.882Z,180
2023-01-06T00:55:27.143Z,180
2023-01-06T00:55:58.871Z,180
2023-01-06T00:56:30.807Z,180
2023-01-06T00:57:02.845Z,180
2023-01-06T00:57:35.367Z,180
2023-01-06T00:58:07.140Z,180
2023-01-06T00:58:35.409Z,180
2023-01-06T00:58:55.785Z,180
2023-01-06T00:59:26.902Z,180
2023-01-06T00:59:58.992Z,180
2023-01-06T01:00:31.775Z,180
2023-01-06T01:01:07.949Z,180
2023-01-06T01:01:35.033Z,180
2023-01-06T01:02:07.847Z,180
2023-01-06T01:02:35.428Z,180
2023-01-06T01:02:54.919Z,180
2023-01-06T01:03:26.873Z,180
2023-01-06T01:03:58.865Z,180
2023-01-06T01:04:30.891Z,180
2023-01-06T01:05:03.558Z,180
2023-01-06T01:05:34.825Z,180
2023-01-06T01:06:07.180Z,180
2023-01-06T01:06:34.666Z,180
2023-01-06T01:06:54.872Z,180
2023-01-06T01:07:26.873Z,180
2023-01-06T01:07:58.894Z,180
2023-01-06T01:08:31.607Z,180
2023-01-06T01:09:02.871Z,180
2023-01-06T01:09:34.888Z,180
2023-01-06T01:10:07.423Z,180
2023-01-06T01:10:35.141Z,180
2023-01-06T01:10:55.124Z,180
2023-01-06T01:11:26.979Z,180
2023-01-06T01:11:58.854Z,180
2023-01-06T01:12:30.889Z,180
2023-01-06T01:13:02.860Z,180
2023-01-06T01:13:34.894Z,180
2023-01-06T01:14:07.201Z,180
2023-01-06T01:14:34.656Z,180
2023-01-06T01:14:55.741Z,180
2023-01-06T01:15:27.369Z,180
2023-01-06T01:15:58.928Z,180
2023-01-06T01:16:30.900Z,180
2023-01-06T01:17:02.855Z,180
2023-01-06T01:17:34.981Z,180
2023-01-06T01:18:07.676Z,180
2023-01-06T01:18:34.615Z,180
2023-01-06T01:18:54.907Z,180
2023-01-06T01:19:26.975Z,180
2023-01-06T01:19:58.843Z,180
2023-01-06T01:20:31.159Z,180
2023-01-06T01:21:02.846Z,180
2023-01-06T01:21:34.852Z,180
2023-01-06T01:22:07.174Z,180
2023-01-06T01:22:34.602Z,180
2023-01-06T01:22:54.995Z,180
2023-01-06T01:23:26.984Z,180
2023-01-06T01:23:58.831Z,180
2023-01-06T01:24:31.708Z,180
2023-01-06T01:25:03.264Z,180
2023-01-06T01:25:34.859Z,180
2023-01-06T01:26:07.148Z,180
2023-01-06T01:26:35.434Z,180
2023-01-06T01:26:54.877Z,180
2023-01-06T01:27:26.944Z,180
2023-01-06T01:27:58.851Z,180
2023-01-06T01:28:30.824Z,180
2023-01-06T01:29:02.828Z,180
2023-01-06T01:29:35.226Z,180
2023-01-06T01:30:08.056Z,180
2023-01-06T01:30:35.652Z,180
2023-01-06T01:30:57.098Z,180
2023-01-06T01:31:26.950Z,180
2023-01-06T01:31:58.975Z,180
2023-01-06T01:32:30.851Z,180
2023-01-06T01:33:02.930Z,180
2023-01-06T01:33:34.856Z,180
2023-01-06T01:34:07.598Z,180
2023-01-06T01:34:34.612Z,180
2023-01-06T01:34:54.850Z,180
2023-01-06T01:35:27.095Z,180
2023-01-06T01:35:58.824Z,180
2023-01-06T01:36:31.233Z,180
2023-01-06T01:37:02.801Z,180
2023-01-06T01:37:34.865Z,180
2023-01-06T01:38:07.183Z,180
2023-01-06T01:38:34.625Z,180
2023-01-06T01:38:54.862Z,180
2023-01-06T01:39:26.887Z,180
2023-01-06T01:39:58.859Z,180
2023-01-06T01:40:32.245Z,180
2023-01-06T01:41:02.992Z,180
2023-01-06T01:41:35.123Z,180
2023-01-06T01:42:07.218Z,180
2023-01-06T01:42:34.719Z,180
2023-01-06T01:42:54.883Z,180
2023-01-06T01:43:27.117Z,180
2023-01-06T01:43:59.652Z,180
2023-01-06T01:44:31.294Z,180
2023-01-06T01:45:05.072Z,180
2023-01-06T01:45:35.036Z,180
2023-01-06T01:46:09.693Z,180
2023-01-06T01:46:34.930Z,180
2023-01-06T01:46:55.867Z,180
2023-01-06T01:47:27.024Z,180
2023-01-06T01:47:59.027Z,180
2023-01-06T01:48:31.004Z,180
2023-01-06T01:49:03.052Z,180
2023-01-06T01:49:34.957Z,180
2023-01-06T01:50:07.931Z,180
2023-01-06T01:50:44.520Z,180
2023-01-06T01:51:10.864Z,180
2023-01-06T01:51:34.627Z,180
2023-01-06T01:51:58.989Z,180
2023-01-06T01:52:30.862Z,180
2023-01-06T01:53:02.841Z,180
2023-01-06T01:53:35.157Z,180
2023-01-06T01:54:07.352Z,180
2023-01-06T01:54:34.656Z,180
2023-01-06T01:54:54.926Z,180
2023-01-06T01:55:27.196Z,180
2023-01-06T01:55:58.868Z,180
2023-01-06T01:56:31.722Z,180
2023-01-06T01:57:02.880Z,180
2023-01-06T01:57:34.954Z,180
2023-01-06T01:58:07.354Z,180
2023-01-06T01:58:35.261Z,180
2023-01-06T01:58:54.875Z,180
2023-01-06T01:59:27.101Z,180
2023-01-06T01:59:58.873Z,180
2023-01-06T02:00:31.603Z,180
2023-01-06T02:01:02.910Z,180
2023-01-06T02:01:34.988Z,180
2023-01-06T02:02:07.538Z,180
2023-01-06T02:02:34.744Z,180
2023-01-06T02:02:55.911Z,180
2023-01-06T02:03:26.902Z,180
2023-01-06T02:03:58.885Z,180
2023-01-06T02:04:30.926Z,180
2023-01-06T02:05:03.749Z,180
2023-01-06T02:05:35.224Z,180
2023-01-06T02:06:07.694Z,180
2023-01-06T02:06:34.656Z,180
2023-01-06T02:06:54.852Z,180
2023-01-06T02:07:26.853Z,180
2023-01-06T02:07:58.875Z,180
2023-01-06T02:08:30.904Z,180
2023-01-06T02:09:02.878Z,180
2023-01-06T02:09:34.865Z,180
2023-01-06T02:10:07.707Z,180
2023-01-06T02:10:35.420Z,180
2023-01-06T02:10:55.125Z,180
2023-01-06T02:11:26.901Z,180
2023-01-06T02:11:58.877Z,180
2023-01-06T02:12:31.729Z,180
2023-01-06T02:13:02.845Z,180
2023-01-06T02:13:34.886Z,180
2023-01-06T02:14:07.376Z,180
2023-01-06T02:14:34.683Z,180
2023-01-06T02:14:54.865Z,180
2023-01-06T02:15:27.443Z,180
2023-01-06T02:15:58.926Z,180
2023-01-06T02:16:30.848Z,180
2023-01-06T02:17:02.826Z,180
2023-01-06T02:17:34.866Z,180
2023-01-06T02:18:17.942Z,180
2023-01-06T02:18:34.450Z,180
2023-01-06T02:18:55.679Z,180
2023-01-06T02:19:26.861Z,180
2023-01-06T02:19:58.923Z,180
2023-01-06T02:20:31.178Z,180
2023-01-06T02:21:02.847Z,180
2023-01-06T02:21:34.869Z,180
2023-01-06T02:22:08.088Z,180
2023-01-06T02:22:34.639Z,180
2023-01-06T02:22:54.873Z,180
2023-01-06T02:23:26.854Z,180
2023-01-06T02:23:58.827Z,180
2023-01-06T02:24:30.845Z,180
2023-01-06T02:25:03.656Z,180
2023-01-06T02:25:34.880Z,180
2023-01-06T02:26:07.342Z,180
2023-01-06T02:26:34.635Z,180
2023-01-06T02:26:54.910Z,180
2023-01-06T02:27:26.873Z,180
2023-01-06T02:27:58.868Z,180
2023-01-06T02:28:31.815Z,180
2023-01-06T02:29:02.880Z,180
2023-01-06T02:29:34.910Z,180
2023-01-06T02:30:09.072Z,180
2023-01-06T02:30:34.702Z,180
2023-01-06T02:30:55.293Z,180
2023-01-06T02:31:26.911Z,180
2023-01-06T02:31:58.869Z,180
2023-01-06T02:32:31.133Z,180
2023-01-06T02:33:03.025Z,180
2023-01-06T02:33:34.878Z,180
2023-01-06T02:34:07.366Z,180
2023-01-06T02:34:34.651Z,180
2023-01-06T02:34:54.906Z,180
2023-01-06T02:35:27.122Z,180
2023-01-06T02:35:58.841Z,180
2023-01-06T02:36:31.756Z,180
2023-01-06T02:37:02.833Z,180
2023-01-06T02:37:34.850Z,180
2023-01-06T02:38:07.579Z,180
2023-01-06T02:38:34.646Z,180
2023-01-06T02:38:54.824Z,180
2023-01-06T02:39:26.830Z,180
2023-01-06T02:39:58.798Z,180
2023-01-06T02:40:31.107Z,180
2023-01-06T02:41:02.782Z,180
2023-01-06T02:41:35.501Z,180
2023-01-06T02:42:07.462Z,180
2023-01-06T02:42:34.915Z,180
2023-01-06T02:42:55.799Z,180
2023-01-06T02:43:27.129Z,180
2023-01-06T02:43:58.846Z,180
2023-01-06T02:44:30.856Z,180
2023-01-06T02:45:03.843Z,180
2023-01-06T02:45:34.888Z,180
2023-01-06T02:46:08.323Z,180
2023-01-06T02:46:35.075Z,180
2023-01-06T02:46:54.817Z,180
2023-01-06T02:47:26.806Z,180
2023-01-06T02:47:58.824Z,180
2023-01-06T02:48:30.798Z,180
2023-01-06T02:49:02.801Z,180
2023-01-06T02:49:34.799Z,180
2023-01-06T02:50:07.523Z,180
2023-01-06T02:50:34.651Z,180
2023-01-06T02:50:55.094Z,180
2023-01-06T02:51:26.792Z,180
2023-01-06T02:51:58.848Z,180
2023-01-06T02:52:31.561Z,180
2023-01-06T02:53:02.803Z,180
2023-01-06T02:53:35.690Z,180
2023-01-06T02:54:07.288Z,180
2023-01-06T02:54:34.598Z,180
2023-01-06T02:54:54.819Z,180
2023-01-06T02:55:27.096Z,180
2023-01-06T02:55:58.807Z,180
2023-01-06T02:56:30.830Z,180
2023-01-06T02:57:02.801Z,180
2023-01-06T02:57:34.813Z,180
2023-01-06T02:58:07.195Z,180
2023-01-06T02:58:34.619Z,180
2023-01-06T02:58:56.369Z,180
2023-01-06T02:59:26.832Z,180
2023-01-06T02:59:58.793Z,180
2023-01-06T03:00:31.378Z,180
2023-01-06T03:01:02.792Z,180
2023-01-06T03:01:34.926Z,180
2023-01-06T03:02:07.741Z,180
2023-01-06T03:02:34.859Z,180
2023-01-06T03:02:54.800Z,180
2023-01-06T03:03:26.810Z,180
2023-01-06T03:03:58.792Z,180
2023-01-06T03:04:30.828Z,180
2023-01-06T03:05:03.485Z,180
2023-01-06T03:05:34.863Z,180
2023-01-06T03:06:07.189Z,180
2023-01-06T03:06:34.609Z,180
2023-01-06T03:06:54.832Z,180
2023-01-06T03:07:26.834Z,180
2023-01-06T03:07:58.838Z,180
2023-01-06T03:08:31.486Z,180
2023-01-06T03:09:02.837Z,180
2023-01-06T03:09:34.840Z,180
2023-01-06T03:10:07.525Z,180
2023-01-06T03:10:35.428Z,180
2023-01-06T03:10:55.154Z,180
2023-01-06T03:11:26.807Z,180
2023-01-06T03:11:58.825Z,180
2023-01-06T03:12:30.815Z,180
2023-01-06T03:13:02.843Z,180
2023-01-06T03:13:34.781Z,180
2023-01-06T03:14:07.259Z,180
2023-01-06T03:14:34.600Z,180
2023-01-06T03:14:55.602Z,180
2023-01-06T03:15:27.440Z,180
2023-01-06T03:15:58.876Z,180
2023-01-06T03:16:30.852Z,180
2023-01-06T03:17:02.826Z,180
2023-01-06T03:17:34.847Z,180
2023-01-06T03:18:07.634Z,180
2023-01-06T03:18:34.635Z,180
2023-01-06T03:18:54.818Z,180
2023-01-06T03:19:26.798Z,180
2023-01-06T03:19:58.821Z,180
2023-01-06T03:20:31.055Z,180
2023-01-06T03:21:02.794Z,180
2023-01-06T03:21:34.809Z,180
2023-01-06T03:22:07.276Z,180
2023-01-06T03:22:34.632Z,180
2023-01-06T03:22:54.867Z,180
2023-01-06T03:23:26.857Z,180
2023-01-06T03:23:58.839Z,180
2023-01-06T03:24:31.432Z,180
2023-01-06T03:25:03.411Z,180
2023-01-06T03:25:34.805Z,180
2023-01-06T03:26:07.280Z,180
2023-01-06T03:26:34.573Z,180
2023-01-06T03:26:54.837Z,180
2023-01-06T03:27:26.807Z,180
2023-01-06T03:27:58.792Z,180
2023-01-06T03:28:30.827Z,180
2023-01-06T03:29:02.816Z,180
2023-01-06T03:29:34.820Z,180
2023-01-06T03:30:08.001Z,180
2023-01-06T03:30:34.648Z,180
2023-01-06T03:30:55.812Z,180
2023-01-06T03:31:26.883Z,180
2023-01-06T03:31:58.849Z,180
2023-01-06T03:32:30.815Z,180
2023-01-06T03:33:02.954Z,180
2023-01-06T03:33:34.819Z,180
2023-01-06T03:34:07.496Z,180
2023-01-06T03:34:34.598Z,180
2023-01-06T03:34:54.869Z,180
2023-01-06T03:35:27.133Z,180
2023-01-06T03:35:58.813Z,180
2023-01-06T03:36:30.826Z,180
2023-01-06T03:37:02.810Z,180
2023-01-06T03:37:35.441Z,180
2023-01-06T03:38:07.268Z,180
2023-01-06T03:38:34.694Z,180
2023-01-06T03:38:54.815Z,180
2023-01-06T03:39:26.871Z,180
2023-01-06T03:39:58.853Z,180
2023-01-06T03:40:31.859Z,180
2023-01-06T03:41:02.824Z,180
2023-01-06T03:41:34.829Z,180
2023-01-06T03:42:07.299Z,180
2023-01-06T03:42:36.544Z,180
2023-01-06T03:42:54.823Z,180
2023-01-06T03:43:26.798Z,180
2023-01-06T03:43:58.812Z,180
2023-01-06T03:44:30.820Z,180
2023-01-06T03:45:03.745Z,180
2023-01-06T03:45:35.447Z,180
2023-01-06T03:46:07.595Z,180
2023-01-06T03:46:34.671Z,180
2023-01-06T03:46:56.413Z,180
2023-01-06T03:47:26.825Z,180
2023-01-06T03:47:58.799Z,180
2023-01-06T03:50:49.318Z,180
2023-01-06T03:50:54.772Z,180
2023-01-06T03:51:27.106Z,180
2023-01-06T03:51:58.812Z,180
2023-01-06T03:52:30.849Z,180
2023-01-06T03:53:02.816Z,180
2023-01-06T03:53:34.782Z,180
2023-01-06T03:54:07.243Z,180
2023-01-06T03:54:34.565Z,180
2023-01-06T03:54:54.868Z,180
2023-01-06T03:55:27.095Z,180
2023-01-06T03:55:58.819Z,180
2023-01-06T03:56:30.807Z,180
2023-01-06T03:57:03.807Z,180
2023-01-06T03:57:34.813Z,180
2023-01-06T03:58:07.286Z,180
2023-01-06T03:58:43.008Z,180
2023-01-06T03:59:10.816Z,180
2023-01-06T03:59:34.595Z,180
2023-01-06T03:59:58.775Z,180
2023-01-06T04:00:31.411Z,180
2023-01-06T04:01:02.833Z,180
2023-01-06T04:01:34.934Z,180
2023-01-06T04:02:07.310Z,180
2023-01-06T04:02:34.617Z,180
2023-01-06T04:02:54.844Z,180
2023-01-06T04:03:27.686Z,180
2023-01-06T04:03:58.918Z,180
2023-01-06T04:04:30.832Z,180
2023-01-06T04:05:03.364Z,180
2023-01-06T04:05:34.813Z,180
2023-01-06T04:06:07.207Z,180
2023-01-06T04:06:35.707Z,180
2023-01-06T04:06:54.823Z,180
2023-01-06T04:07:26.809Z,180
2023-01-06T04:07:58.802Z,180
2023-01-06T04:08:30.770Z,180
2023-01-06T04:09:02.825Z,180
2023-01-06T04:09:34.806Z,180
2023-01-06T04:10:07.597Z,180
2023-01-06T04:10:35.131Z,180
2023-01-06T04:10:55.136Z,180
2023-01-06T04:11:26.837Z,180
2023-01-06T04:11:58.847Z,180
2023-01-06T04:12:30.787Z,180
2023-01-06T04:13:03.931Z,180
2023-01-06T04:13:34.834Z,180
2023-01-06T04:14:07.364Z,180
2023-01-06T04:14:34.601Z,180
2023-01-06T04:14:54.793Z,180
2023-01-06T04:15:27.305Z,180
2023-01-06T04:16:16.150Z,180
2023-01-06T04:16:37.070Z,180
2023-01-06T04:17:02.862Z,180
2023-01-06T04:17:35.389Z,180
2023-01-06T04:18:07.300Z,180
2023-01-06T04:18:34.589Z,180
2023-01-06T04:18:54.801Z,180
2023-01-06T04:19:27.627Z,180
2023-01-06T04:19:58.836Z,180
2023-01-06T04:20:31.127Z,180
2023-01-06T04:21:02.869Z,180
2023-01-06T04:21:34.843Z,180
2023-01-06T04:22:07.284Z,180
2023-01-06T04:22:35.975Z,180
2023-01-06T04:22:54.705Z,180
2023-01-06T04:23:26.797Z,180
2023-01-06T04:23:58.773Z,180
2023-01-06T04:24:30.823Z,180
2023-01-06T04:25:03.574Z,180
2023-01-06T04:25:34.798Z,180
2023-01-06T04:26:07.260Z,180
2023-01-06T04:26:34.599Z,180
2023-01-06T04:26:54.834Z,180
2023-01-06T04:27:26.780Z,180
2023-01-06T04:27:58.802Z,180
2023-01-06T04:28:30.838Z,180
2023-01-06T04:29:03.835Z,180
2023-01-06T04:29:34.810Z,180
2023-01-06T04:30:08.157Z,180
2023-01-06T04:30:34.620Z,180
2023-01-06T04:30:55.081Z,180
2023-01-06T04:31:26.877Z,180
2023-01-06T04:31:58.790Z,180
2023-01-06T04:32:30.763Z,180
2023-01-06T04:33:03.104Z,180
2023-01-06T04:33:35.213Z,180
2023-01-06T04:34:07.284Z,180
2023-01-06T04:34:34.568Z,180
2023-01-06T04:34:54.798Z,180
2023-01-06T04:35:27.084Z,180
2023-01-06T04:35:58.782Z,180
2023-01-06T04:36:31.711Z,180
2023-01-06T04:37:02.806Z,180
2023-01-06T04:37:34.827Z,180
2023-01-06T04:38:07.214Z,180
2023-01-06T04:38:34.602Z,180
2023-01-06T04:38:54.797Z,180
2023-01-06T04:39:26.769Z,180
2023-01-06T04:39:58.815Z,180
2023-01-06T04:40:31.098Z,180
2023-01-06T04:41:02.822Z,180
2023-01-06T04:41:35.301Z,180
2023-01-06T04:42:07.413Z,180
2023-01-06T04:42:34.574Z,180
2023-01-06T04:42:55.606Z,180
2023-01-06T04:43:26.785Z,180
2023-01-06T04:43:58.810Z,180
2023-01-06T04:44:30.797Z,180
2023-01-06T04:45:03.570Z,180
2023-01-06T04:45:34.913Z,180
2023-01-06T04:46:07.967Z,180
2023-01-06T04:46:35.559Z,180
2023-01-06T04:46:54.811Z,180
2023-01-06T04:47:26.760Z,180
2023-01-06T04:47:58.780Z,180
2023-01-06T04:48:30.799Z,180
2023-01-06T04:49:02.840Z,180
2023-01-06T04:49:34.808Z,180
2023-01-06T04:50:07.521Z,180
2023-01-06T04:50:34.613Z,180
2023-01-06T04:50:55.034Z,180
2023-01-06T04:51:26.830Z,180
2023-01-06T04:51:58.785Z,180
2023-01-06T04:52:31.732Z,180
2023-01-06T04:53:02.809Z,180
2023-01-06T04:53:34.832Z,180
2023-01-06T04:54:07.292Z,180
2023-01-06T04:54:34.610Z,180
2023-01-06T04:54:54.808Z,180
2023-01-06T04:55:27.025Z,180
2023-01-06T04:55:58.787Z,180
2023-01-06T04:56:30.803Z,180
2023-01-06T04:57:02.824Z,180
2023-01-06T04:57:35.537Z,180
2023-01-06T04:58:07.253Z,180
2023-01-06T04:58:34.577Z,180
2023-01-06T04:58:55.610Z,180
2023-01-06T04:59:26.903Z,180
2023-01-06T04:59:58.823Z,180
2023-01-06T05:00:31.365Z,180
2023-01-06T05:01:02.959Z,180
2023-01-06T05:01:34.897Z,180
2023-01-06T05:02:07.253Z,180
2023-01-06T05:02:34.614Z,180
2023-01-06T05:02:54.398Z,180
2023-01-06T05:03:26.325Z,180
2023-01-06T05:03:58.387Z,180
2023-01-06T05:04:37.028Z,180
2023-01-06T05:05:02.923Z,180
2023-01-06T05:05:34.340Z,180
2023-01-06T05:06:08.476Z,180
2023-01-06T05:06:34.873Z,180
2023-01-06T05:06:56.327Z,180
2023-01-06T05:07:26.864Z,180
2023-01-06T05:07:58.784Z,180
2023-01-06T05:08:32.623Z,180
2023-01-06T05:09:03.218Z,180
2023-01-06T05:09:35.552Z,180
2023-01-06T05:10:07.081Z,180
2023-01-06T05:10:34.662Z,180
2023-01-06T05:10:55.143Z,180
2023-01-06T05:11:26.841Z,180
2023-01-06T05:11:58.797Z,180
2023-01-06T05:12:30.782Z,180
2023-01-06T05:13:03.393Z,180
2023-01-06T05:13:35.390Z,180
2023-01-06T05:14:06.809Z,180
2023-01-06T05:14:35.421Z,180
2023-01-06T05:15:09.501Z,180
2023-01-06T05:15:26.841Z,180
2023-01-06T05:15:59.110Z,180
2023-01-06T05:16:30.857Z,180
2023-01-06T05:17:03.326Z,180
2023-01-06T05:17:34.855Z,180
2023-01-06T05:18:06.831Z,180
2023-01-06T05:18:34.579Z,180
2023-01-06T05:18:58.510Z,180
2023-01-06T05:19:26.812Z,180
2023-01-06T05:19:58.797Z,180
2023-01-06T05:20:31.218Z,180
2023-01-06T05:21:03.237Z,180
2023-01-06T05:21:36.311Z,180
2023-01-06T05:22:06.807Z,180
2023-01-06T05:22:34.564Z,180
2023-01-06T05:22:54.807Z,180
2023-01-06T05:23:26.895Z,180
2023-01-06T05:23:58.830Z,180
2023-01-06T05:24:30.837Z,180
2023-01-06T05:25:03.774Z,180
2023-01-06T05:25:34.847Z,180
2023-01-06T05:26:06.853Z,180
2023-01-06T05:26:40.394Z,180
2023-01-06T05:27:10.889Z,180
2023-01-06T05:27:34.566Z,180
2023-01-06T05:27:59.775Z,180
2023-01-06T05:28:30.760Z,180
2023-01-06T05:29:03.240Z,180
2023-01-06T05:29:34.829Z,180
2023-01-06T05:30:07.904Z,180
2023-01-06T05:30:35.236Z,180
2023-01-06T05:30:55.119Z,180
2023-01-06T05:31:26.913Z,180
2023-01-06T05:31:58.857Z,180
2023-01-06T05:32:30.855Z,180
2023-01-06T05:33:03.392Z,180
2023-01-06T05:33:34.763Z,180
2023-01-06T05:34:06.799Z,180
2023-01-06T05:34:34.590Z,180
2023-01-06T05:34:54.794Z,180
2023-01-06T05:35:27.079Z,180
2023-01-06T05:35:58.793Z,180
2023-01-06T05:36:30.780Z,180
2023-01-06T05:37:03.212Z,180
2023-01-06T05:37:37.412Z,180
2023-01-06T05:38:06.810Z,180
2023-01-06T05:38:34.881Z,180
2023-01-06T05:38:54.892Z,180
2023-01-06T05:39:26.935Z,180
2023-01-06T05:39:58.992Z,180
2023-01-06T05:40:31.097Z,180
2023-01-06T05:41:03.277Z,180
2023-01-06T05:41:34.830Z,180
2023-01-06T05:42:06.798Z,180
2023-01-06T05:42:34.603Z,180
2023-01-06T05:42:54.801Z,180
2023-01-06T05:43:26.789Z,180
2023-01-06T05:43:59.665Z,180
2023-01-06T05:44:30.770Z,180
2023-01-06T05:45:04.314Z,180
2023-01-06T05:45:35.477Z,180
2023-01-06T05:46:07.573Z,180
2023-01-06T05:46:34.591Z,180
2023-01-06T05:46:54.843Z,180
2023-01-06T05:47:26.850Z,180
2023-01-06T05:47:58.796Z,180
2023-01-06T05:48:30.771Z,180
2023-01-06T05:49:03.299Z,180
2023-01-06T05:49:35.150Z,180
2023-01-06T05:50:07.096Z,180
2023-01-06T05:50:34.558Z,180
2023-01-06T05:50:55.027Z,180
2023-01-06T05:51:26.813Z,180
2023-01-06T05:51:58.771Z,180
2023-01-06T05:52:30.793Z,180
2023-01-06T05:53:03.236Z,180
2023-01-06T05:53:35.716Z,180
2023-01-06T05:54:06.808Z,180
2023-01-06T05:54:34.562Z,180
2023-01-06T05:54:54.789Z,180
2023-01-06T05:55:27.136Z,180
2023-01-06T05:55:58.807Z,180
2023-01-06T05:56:30.824Z,180
2023-01-06T05:57:03.223Z,180
2023-01-06T05:57:34.816Z,180
2023-01-06T05:58:06.806Z,180
2023-01-06T05:58:34.573Z,180
2023-01-06T05:58:54.782Z,180
2023-01-06T05:59:26.804Z,180
2023-01-06T06:00:01.077Z,180
2023-01-06T06:00:30.788Z,180
2023-01-06T06:01:03.331Z,180
2023-01-06T06:01:35.678Z,180
2023-01-06T06:02:06.849Z,180
2023-01-06T06:02:34.567Z,180
2023-01-06T06:02:54.816Z,180
2023-01-06T06:03:26.928Z,180
2023-01-06T06:03:58.863Z,180
2023-01-06T06:04:30.844Z,180
2023-01-06T06:05:03.989Z,180
2023-01-06T06:05:36.555Z,180
2023-01-06T06:06:06.792Z,180
2023-01-06T06:06:34.575Z,180
2023-01-06T06:06:54.817Z,180
2023-01-06T06:07:26.807Z,180
2023-01-06T06:07:58.781Z,180
2023-01-06T06:08:30.796Z,180
2023-01-06T06:09:03.223Z,180
2023-01-06T06:09:35.585Z,180
2023-01-06T06:10:07.110Z,180
2023-01-06T06:10:34.585Z,180
2023-01-06T06:10:55.116Z,180
2023-01-06T06:11:26.854Z,180
2023-01-06T06:11:58.760Z,180
2023-01-06T06:12:30.855Z,180
2023-01-06T06:13:03.252Z,180
2023-01-06T06:13:34.820Z,180
2023-01-06T06:14:06.759Z,90
2023-01-06T06:14:35.088Z,90
2023-01-06T06:14:55.205Z,90
2023-01-06T06:15:27.418Z,90
2023-01-06T06:15:59.717Z,90
2023-01-06T06:16:30.833Z,90
2023-01-06T06:17:03.560Z,90
2023-01-06T06:17:34.773Z,90
2023-01-06T06:18:06.778Z,90
2023-01-06T06:18:34.619Z,90
2023-01-06T06:18:54.827Z,90
2023-01-06T06:19:26.819Z,90
2023-01-06T06:19:58.791Z,90
2023-01-06T06:20:31.064Z,90
2023-01-06T06:21:03.247Z,90
2023-01-06T06:21:34.806Z,90
2023-01-06T06:22:09.116Z,90
2023-01-06T06:22:34.872Z,90
2023-01-06T06:22:54.794Z,90
2023-01-06T06:23:26.829Z,90
2023-01-06T06:23:58.806Z,180
2023-01-06T06:24:30.972Z,180
2023-01-06T06:25:03.663Z,180
2023-01-06T06:25:36.457Z,273
2023-01-06T06:26:06.800Z,275
2023-01-06T06:26:34.596Z,280
2023-01-06T06:26:54.830Z,286
2023-01-06T06:27:26.824Z,290
2023-01-06T06:27:58.789Z,288
2023-01-06T06:28:30.800Z,288
2023-01-06T06:29:03.264Z,297
2023-01-06T06:29:35.012Z,297
2023-01-06T06:30:07.821Z,292
2023-01-06T06:30:34.573Z,289
2023-01-06T06:30:55.758Z,284
2023-01-06T06:31:26.938Z,284
2023-01-06T06:31:59.503Z,280
2023-01-06T06:32:30.823Z,275
2023-01-06T06:33:03.455Z,180
2023-01-06T06:33:35.219Z,180
2023-01-06T06:34:06.797Z,180
2023-01-06T06:34:35.187Z,180
2023-01-06T06:34:54.816Z,180
2023-01-06T06:35:27.085Z,180
2023-01-06T06:35:58.818Z,180
2023-01-06T06:36:30.796Z,180
2023-01-06T06:37:03.250Z,180
2023-01-06T06:37:34.772Z,180
2023-01-06T06:38:06.833Z,180
2023-01-06T06:38:34.548Z,180
2023-01-06T06:38:54.795Z,90
2023-01-06T06:39:26.823Z,90
2023-01-06T06:39:58.787Z,90
2023-01-06T06:40:31.149Z,90
2023-01-06T06:41:03.393Z,90
2023-01-06T06:41:36.176Z,90
2023-01-06T06:42:06.762Z,90
2023-01-06T06:42:34.653Z,90
2023-01-06T06:42:54.833Z,90
2023-01-06T06:43:26.957Z,90
2023-01-06T06:43:58.843Z,90
2023-01-06T06:44:30.883Z,90
2023-01-06T06:45:04.363Z,90
2023-01-06T06:45:34.926Z,90
2023-01-06T06:46:07.486Z,90
2023-01-06T06:46:34.603Z,90
2023-01-06T06:46:54.844Z,90
2023-01-06T06:47:26.967Z,90
2023-01-06T06:47:59.665Z,90
2023-01-06T06:48:30.911Z,90
2023-01-06T06:49:03.266Z,90
2023-01-06T06:49:34.961Z,88
2023-01-06T06:50:07.124Z,83
2023-01-06T06:50:35.236Z,78
2023-01-06T06:50:55.188Z,73
2023-01-06T06:51:27.085Z,69
2023-01-06T06:51:58.834Z,66
2023-01-06T06:52:30.805Z,66
2023-01-06T06:53:03.363Z,66
2023-01-06T06:53:35.234Z,66
2023-01-06T06:54:06.801Z,64
2023-01-06T06:54:34.587Z,64
2023-01-06T06:54:54.767Z,69
2023-01-06T06:55:27.125Z,69
2023-01-06T06:55:58.757Z,67